Time;durP1;ratioP1;P1;durP2;ratioP2;P2;SDS_P1;SDS_P2;PMS_P1;PMS_P2;Temp;Humidity;BMP_temperature;BMP_pressure;BME280_temperature;BME280_humidity;BME280_pressure;Samples;Min_cycle;Max_cycle;Signal;HPM_P1;HPM_P2
2024/01/17 00:00:27;;;;;;;0.00;0.00;;;1.30;81.00;;;;;;4986976;28;20368;-67
2024/01/17 00:02:53;;;;;;;0.00;0.00;;;1.30;80.90;;;;;;4983941;28;20442;-65
2024/01/17 00:05:19;;;;;;;0.10;0.10;;;1.40;81.10;;;;;;4987996;28;20053;-65
2024/01/17 00:07:44;;;;;;;0.10;0.10;;;1.30;81.50;;;;;;4987965;28;20050;-65
2024/01/17 00:10:10;;;;;;;0.00;0.00;;;1.30;81.60;;;;;;4987513;28;20057;-66
2024/01/17 00:12:36;;;;;;;0.22;0.22;;;1.30;81.60;;;;;;4987459;28;20046;-65
2024/01/17 00:15:01;;;;;;;0.10;0.10;;;1.30;81.60;;;;;;4987275;28;20096;-65
2024/01/17 00:17:28;;;;;;;0.00;0.00;;;1.30;81.70;;;;;;4987647;28;20149;-65
2024/01/17 00:19:53;;;;;;;0.10;0.10;;;1.40;81.70;;;;;;4985874;28;20053;-66
2024/01/17 00:22:19;;;;;;;0.10;0.10;;;1.40;81.70;;;;;;4985818;28;20050;-66
2024/01/17 00:24:45;;;;;;;0.70;0.70;;;1.30;81.60;;;;;;4986273;28;20090;-66
2024/01/17 00:27:13;;;;;;;0.10;0.10;;;1.30;81.90;;;;;;5002463;28;20608;-65
2024/01/17 00:29:38;;;;;;;0.00;0.00;;;1.30;82.00;;;;;;5004186;28;20515;-65
2024/01/17 00:32:04;;;;;;;0.28;0.28;;;1.30;82.10;;;;;;4985885;28;20054;-65
2024/01/17 00:34:30;;;;;;;0.00;0.00;;;1.30;82.20;;;;;;4987264;28;20058;-66
2024/01/17 00:36:56;;;;;;;0.63;0.63;;;1.30;81.90;;;;;;4984942;28;20514;-66
2024/01/17 00:39:22;;;;;;;0.00;0.00;;;1.20;81.80;;;;;;4986824;28;20040;-65
2024/01/17 00:41:49;;;;;;;0.10;0.10;;;1.20;82.10;;;;;;4985261;28;20495;-65
2024/01/17 00:44:18;;;;;;;1.13;1.13;;;1.30;81.90;;;;;;4987500;28;20053;-65
2024/01/17 00:46:43;;;;;;;1.13;1.05;;;1.20;81.90;;;;;;4986749;28;20411;-65
2024/01/17 00:49:09;;;;;;;0.10;0.10;;;1.30;82.00;;;;;;4976620;28;20133;-66
2024/01/17 00:51:35;;;;;;;0.57;0.57;;;1.30;81.80;;;;;;4986385;28;20182;-66
2024/01/17 00:54:01;;;;;;;0.15;0.15;;;1.20;81.90;;;;;;4985265;28;20042;-65
2024/01/17 00:56:27;;;;;;;0.17;0.17;;;1.30;82.00;;;;;;4997113;28;20100;-65
2024/01/17 00:58:52;;;;;;;0.10;0.10;;;1.30;82.10;;;;;;4992606;28;20050;-66
2024/01/17 01:01:19;;;;;;;0.75;0.75;;;1.40;81.90;;;;;;4997934;28;20054;-65
2024/01/17 01:03:45;;;;;;;0.60;0.60;;;1.30;82.00;;;;;;5003231;28;20088;-66
2024/01/17 01:06:11;;;;;;;0.00;0.00;;;1.30;81.80;;;;;;4987180;28;20410;-66
2024/01/17 01:08:37;;;;;;;3.20;2.47;;;1.30;81.40;;;;;;4985529;28;20039;-65
2024/01/17 01:11:03;;;;;;;0.10;0.10;;;1.30;81.50;;;;;;4985989;28;20082;-65
2024/01/17 01:13:29;;;;;;;0.08;0.08;;;1.30;81.70;;;;;;4998471;28;20122;-66
2024/01/17 01:15:54;;;;;;;0.35;0.35;;;1.40;81.70;;;;;;5005755;28;20503;-65
2024/01/17 01:18:20;;;;;;;0.00;0.00;;;1.40;81.40;;;;;;4996467;28;20370;-65
2024/01/17 01:20:46;;;;;;;0.10;0.10;;;1.40;81.40;;;;;;4986903;28;20406;-66
2024/01/17 01:23:12;;;;;;;0.10;0.10;;;1.40;81.30;;;;;;4985935;28;20402;-66
2024/01/17 01:25:38;;;;;;;0.10;0.10;;;1.40;81.10;;;;;;4986574;28;20056;-65
2024/01/17 01:28:04;;;;;;;0.00;0.00;;;1.20;81.30;;;;;;4986556;28;20046;-65
2024/01/17 01:30:31;;;;;;;0.75;0.75;;;1.30;81.30;;;;;;4986868;28;20073;-66
2024/01/17 01:32:56;;;;;;;0.10;0.10;;;1.30;81.30;;;;;;5001897;28;20550;-66
2024/01/17 01:35:22;;;;;;;0.10;0.10;;;1.20;81.60;;;;;;4986572;28;20049;-65
2024/01/17 01:37:48;;;;;;;0.00;0.00;;;1.20;81.90;;;;;;4986220;28;20042;-66
2024/01/17 01:40:13;;;;;;;0.10;0.10;;;1.20;81.90;;;;;;4986818;28;20046;-66
2024/01/17 01:42:45;;;;;;;0.43;0.43;;;1.20;82.10;;;;;;4985771;28;20148;-66
2024/01/17 01:45:11;;;;;;;0.10;0.10;;;1.20;82.20;;;;;;4986278;28;20046;-66
2024/01/17 01:47:37;;;;;;;0.00;0.00;;;1.10;82.60;;;;;;4986406;28;20376;-66
2024/01/17 01:50:05;;;;;;;0.00;0.00;;;1.20;82.80;;;;;;4999047;28;20073;-65
2024/01/17 01:52:35;;;;;;;0.00;0.00;;;1.20;82.60;;;;;;4991906;28;20046;-65
2024/01/17 01:55:05;;;;;;;0.50;0.47;;;1.20;82.70;;;;;;4985559;28;20054;-66
2024/01/17 01:57:34;;;;;;;0.10;0.10;;;1.10;82.60;;;;;;4999396;28;20124;-66
2024/01/17 02:00:00;;;;;;;1.10;1.02;;;1.20;82.50;;;;;;4987140;28;20136;-65
2024/01/17 02:02:25;;;;;;;0.10;0.10;;;1.10;82.80;;;;;;4989017;28;20046;-66
2024/01/17 02:04:53;;;;;;;0.10;0.10;;;1.20;82.90;;;;;;4989109;28;20411;-65
2024/01/17 02:07:21;;;;;;;0.00;0.00;;;1.10;82.80;;;;;;4988317;28;20417;-65
2024/01/17 02:09:48;;;;;;;0.10;0.10;;;1.10;83.00;;;;;;4988670;28;20042;-65
2024/01/17 02:12:14;;;;;;;0.10;0.10;;;1.10;83.10;;;;;;4988363;28;20045;-65
2024/01/17 02:14:41;;;;;;;0.10;0.10;;;1.10;83.30;;;;;;4998137;28;20487;-65
2024/01/17 02:17:08;;;;;;;7.07;1.23;;;1.10;83.00;;;;;;4997038;28;20050;-66
2024/01/17 02:19:35;;;;;;;0.00;0.00;;;1.10;83.10;;;;;;4987961;28;20512;-65
2024/01/17 02:22:01;;;;;;;0.10;0.10;;;1.00;83.40;;;;;;4993471;28;20042;-66
2024/01/17 02:24:28;;;;;;;0.55;0.55;;;1.00;83.40;;;;;;4987245;28;20504;-65
2024/01/17 02:26:54;;;;;;;0.10;0.10;;;1.00;83.50;;;;;;5001827;28;20108;-66
2024/01/17 02:29:21;;;;;;;0.00;0.00;;;1.10;83.40;;;;;;4991239;28;20062;-66
2024/01/17 02:31:48;;;;;;;0.08;0.08;;;1.00;83.70;;;;;;4988111;28;20058;-66
2024/01/17 02:34:14;;;;;;;0.10;0.10;;;1.00;83.80;;;;;;4988773;28;20058;-66
2024/01/17 02:36:39;;;;;;;0.00;0.00;;;1.00;83.60;;;;;;4989339;28;20464;-66
2024/01/17 02:39:05;;;;;;;0.10;0.10;;;1.00;83.80;;;;;;4971714;28;20065;-65
2024/01/17 02:41:31;;;;;;;0.08;0.08;;;1.00;84.00;;;;;;4990150;28;20478;-65
2024/01/17 02:43:56;;;;;;;0.00;0.00;;;1.10;84.00;;;;;;4987955;28;20484;-65
2024/01/17 02:46:25;;;;;;;0.10;0.10;;;1.10;84.00;;;;;;4987504;28;20050;-66
2024/01/17 02:48:52;;;;;;;0.10;0.10;;;1.10;84.00;;;;;;4988695;28;20096;-66
2024/01/17 02:51:17;;;;;;;0.10;0.10;;;1.10;84.20;;;;;;4989439;28;20164;-66
2024/01/17 02:53:43;;;;;;;0.20;0.20;;;1.10;84.10;;;;;;4989630;28;20495;-65
2024/01/17 02:56:08;;;;;;;0.10;0.10;;;1.10;84.10;;;;;;4993983;28;20049;-65
2024/01/17 02:58:34;;;;;;;0.10;0.10;;;1.10;84.30;;;;;;4989085;28;20050;-65
2024/01/17 03:01:00;;;;;;;0.00;0.00;;;1.00;84.40;;;;;;4989640;28;20135;-66
2024/01/17 03:03:25;;;;;;;1.73;1.63;;;1.20;84.20;;;;;;4989478;28;20046;-65
2024/01/17 03:05:51;;;;;;;0.10;0.10;;;1.20;84.30;;;;;;4988258;28;20056;-66
2024/01/17 03:08:17;;;;;;;0.20;0.20;;;1.20;84.10;;;;;;4997445;28;20154;-66
2024/01/17 03:10:42;;;;;;;0.20;0.20;;;1.10;84.30;;;;;;4986849;28;20120;-65
2024/01/17 03:13:08;;;;;;;0.68;0.68;;;1.20;84.30;;;;;;4987434;28;20555;-65
2024/01/17 03:15:34;;;;;;;0.10;0.10;;;1.20;84.20;;;;;;4997383;28;20431;-66
2024/01/17 03:18:00;;;;;;;0.10;0.10;;;1.10;84.40;;;;;;4999775;28;20049;-65
2024/01/17 03:20:26;;;;;;;0.10;0.10;;;1.10;84.40;;;;;;4987648;28;20054;-66
2024/01/17 03:22:53;;;;;;;0.00;0.00;;;1.10;84.40;;;;;;4987790;28;20046;-66
2024/01/17 03:25:19;;;;;;;0.95;0.95;;;1.10;84.70;;;;;;4989768;28;20107;-66
2024/01/17 03:27:45;;;;;;;0.10;0.10;;;1.10;84.80;;;;;;5007774;28;20662;-66
2024/01/17 03:30:11;;;;;;;0.22;0.22;;;1.10;84.80;;;;;;4989345;28;20499;-66
2024/01/17 03:32:36;;;;;;;0.20;0.20;;;1.10;84.80;;;;;;4987550;28;20136;-65
2024/01/17 03:35:02;;;;;;;0.00;0.00;;;1.10;84.90;;;;;;4988715;28;20168;-66
2024/01/17 03:37:28;;;;;;;6.50;1.45;;;1.10;84.90;;;;;;4988970;28;20104;-66
2024/01/17 03:39:54;;;;;;;0.20;0.20;;;1.10;85.00;;;;;;4987715;28;20050;-66
2024/01/17 03:42:19;;;;;;;0.10;0.10;;;1.10;85.10;;;;;;4987847;28;20038;-65
2024/01/17 03:44:45;;;;;;;0.52;0.52;;;1.10;85.10;;;;;;4988401;28;20138;-66
2024/01/17 03:47:12;;;;;;;0.15;0.15;;;1.20;85.20;;;;;;4986842;28;20434;-65
2024/01/17 03:49:38;;;;;;;0.00;0.00;;;1.20;85.20;;;;;;4988028;28;20511;-66
2024/01/17 03:52:07;;;;;;;0.00;0.00;;;1.10;85.10;;;;;;4988054;28;20046;-66
2024/01/17 03:54:35;;;;;;;0.10;0.10;;;1.20;85.20;;;;;;4987372;28;20046;-65
2024/01/17 03:57:01;;;;;;;0.20;0.20;;;1.20;85.20;;;;;;4989915;28;20463;-66
2024/01/17 03:59:27;;;;;;;0.08;0.08;;;1.20;85.20;;;;;;4987274;28;20050;-65
2024/01/17 04:01:53;;;;;;;0.10;0.10;;;1.20;85.10;;;;;;4987043;28;20062;-65
2024/01/17 04:04:18;;;;;;;0.05;0.05;;;1.10;85.20;;;;;;4987056;28;20105;-65
2024/01/17 04:06:44;;;;;;;0.10;0.10;;;1.20;85.20;;;;;;4987800;28;20089;-65
2024/01/17 04:09:10;;;;;;;0.20;0.20;;;1.20;85.10;;;;;;4988323;28;20438;-65
2024/01/17 04:11:36;;;;;;;1.27;1.20;;;1.10;85.20;;;;;;4988406;28;20038;-65
2024/01/17 04:14:02;;;;;;;0.10;0.10;;;1.10;85.20;;;;;;4987283;28;20054;-65
2024/01/17 04:16:28;;;;;;;0.32;0.32;;;1.10;85.30;;;;;;4988775;28;20042;-65
2024/01/17 04:18:53;;;;;;;0.10;0.10;;;1.10;85.50;;;;;;4999978;28;20100;-65
2024/01/17 04:21:19;;;;;;;0.00;0.00;;;1.10;85.60;;;;;;4986153;28;20038;-65
2024/01/17 04:23:47;;;;;;;0.10;0.10;;;1.10;85.70;;;;;;4988041;28;20124;-66
2024/01/17 04:26:21;;;;;;;0.20;0.20;;;1.10;85.60;;;;;;4997060;28;20380;-65
2024/01/17 04:28:47;;;;;;;0.10;0.10;;;1.10;85.70;;;;;;4991609;28;20062;-65
2024/01/17 04:31:22;;;;;;;0.22;0.22;;;1.10;85.80;;;;;;4981236;28;20487;-65
2024/01/17 04:33:47;;;;;;;0.10;0.10;;;1.10;85.70;;;;;;4986968;28;20058;-65
2024/01/17 04:36:16;;;;;;;0.10;0.10;;;1.00;85.60;;;;;;4986062;28;20415;-65
2024/01/17 04:38:42;;;;;;;0.20;0.20;;;0.90;85.60;;;;;;4987889;28;20050;-65
2024/01/17 04:41:10;;;;;;;0.00;0.00;;;0.90;85.50;;;;;;4986415;28;20053;-65
2024/01/17 04:43:36;;;;;;;0.00;0.00;;;0.90;85.50;;;;;;4986970;28;20488;-66
2024/01/17 04:46:02;;;;;;;0.20;0.20;;;0.90;85.80;;;;;;4998259;28;20056;-65
2024/01/17 04:48:27;;;;;;;0.05;0.05;;;0.90;85.70;;;;;;5003892;28;20600;-65
2024/01/17 04:50:58;;;;;;;0.30;0.30;;;1.00;85.70;;;;;;4987895;28;20046;-66
2024/01/17 04:53:24;;;;;;;0.10;0.10;;;1.00;85.70;;;;;;4988270;28;20265;-66
2024/01/17 04:55:50;;;;;;;0.20;0.20;;;0.90;85.70;;;;;;4986397;28;20042;-65
2024/01/17 04:58:17;;;;;;;0.10;0.10;;;0.90;85.70;;;;;;4987204;28;21143;-66
2024/01/17 05:00:46;;;;;;;0.00;0.00;;;0.90;85.70;;;;;;4986139;28;20125;-65
2024/01/17 05:03:12;;;;;;;0.10;0.10;;;0.90;85.70;;;;;;4993823;28;20050;-65
2024/01/17 05:05:40;;;;;;;0.20;0.20;;;0.90;85.70;;;;;;4992503;28;20142;-66
2024/01/17 05:08:06;;;;;;;0.30;0.30;;;0.90;85.60;;;;;;5000235;28;20169;-66
2024/01/17 05:10:31;;;;;;;0.10;0.10;;;0.90;85.40;;;;;;4985452;28;20042;-65
2024/01/17 05:12:57;;;;;;;2.28;1.35;;;0.90;85.40;;;;;;4986577;28;20403;-65
2024/01/17 05:15:24;;;;;;;0.13;0.13;;;0.90;85.30;;;;;;4992800;28;20573;-66
2024/01/17 05:17:50;;;;;;;1.90;1.77;;;0.90;85.30;;;;;;4991876;28;20054;-66
2024/01/17 05:20:17;;;;;;;0.30;0.30;;;0.80;85.20;;;;;;4989296;28;20049;-65
2024/01/17 05:22:43;;;;;;;0.47;0.47;;;0.80;85.40;;;;;;4986535;28;20077;-65
2024/01/17 05:25:11;;;;;;;0.10;0.10;;;0.80;85.50;;;;;;4986462;28;20053;-65
2024/01/17 05:27:37;;;;;;;0.15;0.15;;;0.70;85.40;;;;;;4986469;28;20435;-65
2024/01/17 05:30:04;;;;;;;0.10;0.10;;;0.70;85.30;;;;;;4988449;28;20050;-65
2024/01/17 05:32:30;;;;;;;0.30;0.30;;;0.70;85.50;;;;;;4986847;28;20145;-65
2024/01/17 05:34:55;;;;;;;2.10;2.00;;;0.60;85.50;;;;;;4988671;28;20053;-65
2024/01/17 05:37:23;;;;;;;0.10;0.10;;;0.60;85.60;;;;;;4988909;28;20117;-65
2024/01/17 05:39:49;;;;;;;0.00;0.00;;;0.60;85.70;;;;;;4991049;28;20051;-65
2024/01/17 05:42:15;;;;;;;0.30;0.30;;;0.60;85.50;;;;;;5000160;28;20046;-65
2024/01/17 05:44:40;;;;;;;0.10;0.10;;;0.50;85.50;;;;;;5004230;28;20096;-65
2024/01/17 05:47:07;;;;;;;0.10;0.10;;;0.50;85.60;;;;;;4993716;28;20050;-65
2024/01/17 05:49:33;;;;;;;0.05;0.05;;;0.50;85.50;;;;;;4991179;28;20089;-65
2024/01/17 05:51:58;;;;;;;0.10;0.10;;;0.50;85.60;;;;;;5011152;28;20084;-65
2024/01/17 05:54:24;;;;;;;0.10;0.10;;;0.50;85.40;;;;;;5000141;28;20050;-65
2024/01/17 05:56:51;;;;;;;0.10;0.10;;;0.40;85.60;;;;;;4989908;28;20042;-65
2024/01/17 05:59:16;;;;;;;0.20;0.20;;;0.40;85.50;;;;;;4989811;28;20038;-65
2024/01/17 06:01:42;;;;;;;0.10;0.10;;;0.40;85.50;;;;;;4990198;28;20042;-65
2024/01/17 06:04:08;;;;;;;0.00;0.00;;;0.40;85.50;;;;;;4973725;28;20046;-65
2024/01/17 06:06:33;;;;;;;0.10;0.10;;;0.40;85.50;;;;;;4991453;28;20077;-65
2024/01/17 06:08:59;;;;;;;0.13;0.13;;;0.40;85.50;;;;;;4990598;28;20095;-65
2024/01/17 06:11:25;;;;;;;0.15;0.15;;;0.40;85.40;;;;;;4989646;28;20512;-65
2024/01/17 06:13:53;;;;;;;0.10;0.10;;;0.30;85.60;;;;;;4990661;28;20088;-65
2024/01/17 06:16:18;;;;;;;0.10;0.10;;;0.30;85.60;;;;;;4990019;28;20054;-65
2024/01/17 06:18:44;;;;;;;0.10;0.10;;;0.30;85.50;;;;;;4990942;28;20054;-65
2024/01/17 06:21:10;;;;;;;0.10;0.10;;;0.30;85.60;;;;;;4989874;28;20130;-65
2024/01/17 06:23:36;;;;;;;0.10;0.10;;;0.30;85.50;;;;;;4990619;28;20042;-65
2024/01/17 06:26:02;;;;;;;0.10;0.10;;;0.30;85.50;;;;;;4989907;28;20290;-65
2024/01/17 06:28:28;;;;;;;0.55;0.55;;;0.30;85.60;;;;;;4989579;28;20111;-65
2024/01/17 06:30:54;;;;;;;0.10;0.10;;;0.30;85.70;;;;;;4987997;28;20046;-65
2024/01/17 06:33:20;;;;;;;0.25;0.25;;;0.20;85.60;;;;;;4986274;28;20157;-65
2024/01/17 06:35:49;;;;;;;0.10;0.10;;;0.20;85.40;;;;;;4992968;28;20050;-65
2024/01/17 06:38:15;;;;;;;0.10;0.10;;;0.10;85.60;;;;;;5001390;28;20769;-66
2024/01/17 06:40:40;;;;;;;0.10;0.10;;;0.10;85.60;;;;;;4986522;28;20034;-66
2024/01/17 06:43:06;;;;;;;0.00;0.00;;;0.10;85.60;;;;;;4998285;28;20068;-66
2024/01/17 06:45:32;;;;;;;0.20;0.20;;;0.10;85.50;;;;;;4990680;28;20408;-66
2024/01/17 06:47:59;;;;;;;0.10;0.10;;;0.00;85.60;;;;;;4992994;28;20506;-66
2024/01/17 06:50:24;;;;;;;0.10;0.10;;;0.10;85.70;;;;;;4997440;28;21721;-65
2024/01/17 06:52:50;;;;;;;0.10;0.10;;;0.10;85.60;;;;;;4988361;28;20491;-66
2024/01/17 06:55:16;;;;;;;0.00;0.00;;;0.10;85.60;;;;;;4993837;28;20527;-65
2024/01/17 06:57:42;;;;;;;0.00;0.00;;;0.10;85.70;;;;;;5009039;28;20050;-65
2024/01/17 07:00:08;;;;;;;0.10;0.10;;;0.10;85.60;;;;;;4998465;28;20174;-66
2024/01/17 07:02:34;;;;;;;0.10;0.10;;;0.10;85.60;;;;;;4987952;28;20053;-66
2024/01/17 07:04:59;;;;;;;0.03;0.03;;;0.10;85.70;;;;;;4992775;28;20417;-67
2024/01/17 07:07:25;;;;;;;0.43;0.43;;;0.00;85.40;;;;;;4994122;28;20090;-67
2024/01/17 07:09:51;;;;;;;0.00;0.00;;;0.00;85.60;;;;;;4989673;28;20048;-67
2024/01/17 07:12:16;;;;;;;0.10;0.10;;;0.00;85.60;;;;;;4991410;28;20050;-67
2024/01/17 07:14:43;;;;;;;0.10;0.10;;;0.00;85.50;;;;;;4990786;28;20097;-69
2024/01/17 07:17:08;;;;;;;0.00;0.00;;;0.00;85.50;;;;;;4984994;28;20461;-69
2024/01/17 07:19:37;;;;;;;1.25;0.73;;;0.00;85.50;;;;;;4986505;28;20117;-68
2024/01/17 07:22:03;;;;;;;0.10;0.10;;;0.00;85.50;;;;;;4987206;28;20042;-68
2024/01/17 07:24:28;;;;;;;0.10;0.10;;;-3276.70;85.20;;;;;;4989210;28;20041;-68
2024/01/17 07:26:54;;;;;;;0.00;0.00;;;-3276.70;85.30;;;;;;4980822;28;20061;-67
2024/01/17 07:29:20;;;;;;;1.15;1.15;;;-3276.70;85.50;;;;;;4987848;28;20073;-68
2024/01/17 07:31:46;;;;;;;0.40;0.40;;;-3276.70;85.40;;;;;;4986475;28;20420;-68
2024/01/17 07:34:11;;;;;;;1.27;1.17;;;-3276.60;85.20;;;;;;4987660;28;20058;-68
2024/01/17 07:36:37;;;;;;;0.52;0.52;;;-3276.70;85.30;;;;;;4985692;28;20034;-68
2024/01/17 07:39:04;;;;;;;0.10;0.10;;;-3276.70;85.20;;;;;;4987468;28;20053;-68
2024/01/17 07:41:30;;;;;;;0.00;0.00;;;-3276.70;85.40;;;;;;4994647;28;20667;-68
2024/01/17 07:43:55;;;;;;;0.00;0.00;;;-3276.70;85.20;;;;;;4988344;28;20046;-67
2024/01/17 07:46:21;;;;;;;0.00;0.00;;;-3276.70;85.10;;;;;;4987395;28;20057;-66
2024/01/17 07:48:47;;;;;;;0.00;0.00;;;0.00;85.20;;;;;;4984826;28;20049;-67
2024/01/17 07:51:13;;;;;;;0.20;0.20;;;-3276.70;85.10;;;;;;4987351;28;20042;-67
2024/01/17 07:53:39;;;;;;;0.22;0.22;;;0.00;85.20;;;;;;4994452;28;20128;-67
2024/01/17 07:56:05;;;;;;;0.17;0.17;;;-3276.70;85.20;;;;;;4992963;28;20121;-67
2024/01/17 07:58:31;;;;;;;0.95;0.52;;;-3276.70;85.10;;;;;;5002442;28;20134;-67
2024/01/17 08:00:57;;;;;;;0.15;0.15;;;-3276.70;85.20;;;;;;4987386;28;20077;-67
2024/01/17 08:03:23;;;;;;;0.00;0.00;;;-3276.60;85.10;;;;;;4986429;28;20047;-67
2024/01/17 08:05:48;;;;;;;0.10;0.10;;;-3276.70;85.10;;;;;;4993303;28;20053;-67
2024/01/17 08:08:14;;;;;;;0.30;0.30;;;-3276.70;85.10;;;;;;4996960;28;20495;-67
2024/01/17 08:10:40;;;;;;;0.22;0.22;;;-3276.70;85.10;;;;;;4987371;28;20117;-67
2024/01/17 08:13:05;;;;;;;0.00;0.00;;;0.00;85.20;;;;;;4984848;28;20089;-67
2024/01/17 08:15:31;;;;;;;0.00;0.00;;;0.00;85.20;;;;;;4990477;28;20096;-67
2024/01/17 08:17:57;;;;;;;0.10;0.10;;;0.00;85.10;;;;;;4982908;28;20088;-67
2024/01/17 08:20:24;;;;;;;0.20;0.20;;;0.00;85.20;;;;;;4986515;28;20042;-67
2024/01/17 08:22:49;;;;;;;0.10;0.10;;;0.00;85.20;;;;;;4986291;28;20447;-67
2024/01/17 08:25:15;;;;;;;0.00;0.00;;;0.10;85.30;;;;;;4987212;28;20045;-67
2024/01/17 08:27:41;;;;;;;0.00;0.00;;;0.10;85.30;;;;;;4986697;28;20121;-67
2024/01/17 08:30:10;;;;;;;0.10;0.10;;;0.20;85.10;;;;;;4985784;28;20054;-66
2024/01/17 08:32:36;;;;;;;0.43;0.43;;;0.30;85.20;;;;;;4983263;28;20469;-67
2024/01/17 08:35:02;;;;;;;0.10;0.10;;;0.30;85.10;;;;;;4982630;28;20042;-66
2024/01/17 08:37:29;;;;;;;0.00;0.00;;;0.20;84.80;;;;;;4985628;28;20126;-66
2024/01/17 08:39:55;;;;;;;0.10;0.10;;;0.20;84.70;;;;;;4986076;28;20104;-66
2024/01/17 08:42:20;;;;;;;0.00;0.00;;;0.20;84.70;;;;;;4985340;28;20046;-68
2024/01/17 08:44:46;;;;;;;0.10;0.10;;;0.10;84.60;;;;;;4984465;28;20050;-68
2024/01/17 08:47:12;;;;;;;0.10;0.10;;;0.20;84.60;;;;;;4992378;28;20049;-68
2024/01/17 08:49:40;;;;;;;0.03;0.03;;;0.20;84.70;;;;;;4985013;28;20052;-68
2024/01/17 08:52:07;;;;;;;0.00;0.00;;;0.10;84.60;;;;;;4988114;28;20487;-68
2024/01/17 08:54:34;;;;;;;0.10;0.10;;;0.20;84.70;;;;;;4984265;28;20169;-68
2024/01/17 08:57:01;;;;;;;0.00;0.00;;;0.10;84.50;;;;;;4986700;28;20507;-67
2024/01/17 08:59:28;;;;;;;0.10;0.10;;;0.10;84.40;;;;;;4984857;28;20050;-68
2024/01/17 09:01:56;;;;;;;0.00;0.00;;;1.30;90.20;;;;;;4984798;28;20078;-68
2024/01/17 09:04:22;;;;;;;2.10;1.90;;;2.40;87.70;;;;;;4984497;28;20050;-69
2024/01/17 09:06:48;;;;;;;0.10;0.10;;;2.20;84.00;;;;;;5001498;28;20092;-68
2024/01/17 09:09:14;;;;;;;0.03;0.03;;;1.80;82.50;;;;;;4989051;28;20035;-68
2024/01/17 09:11:40;;;;;;;2.22;2.10;;;1.50;81.70;;;;;;4989877;28;20177;-68
2024/01/17 09:14:06;;;;;;;0.15;0.15;;;1.10;81.10;;;;;;4989698;28;20109;-69
2024/01/17 09:16:33;;;;;;;0.10;0.10;;;0.90;81.60;;;;;;4992409;28;20201;-67
2024/01/17 09:18:59;;;;;;;0.20;0.20;;;0.80;81.90;;;;;;4989693;28;20052;-68
2024/01/17 09:21:25;;;;;;;2.42;2.00;;;0.70;82.20;;;;;;4990417;28;20050;-68
2024/01/17 09:23:51;;;;;;;0.20;0.20;;;0.60;82.30;;;;;;4987462;28;20439;-69
2024/01/17 09:26:17;;;;;;;0.10;0.10;;;0.60;82.60;;;;;;4990284;28;20052;-68
2024/01/17 09:28:42;;;;;;;0.35;0.35;;;0.60;82.80;;;;;;4981720;28;20551;-69
2024/01/17 09:31:08;;;;;;;0.30;0.30;;;0.50;82.60;;;;;;4973508;28;20125;-71
2024/01/17 09:33:35;;;;;;;2.10;2.00;;;0.50;83.00;;;;;;4989819;28;20050;-68
2024/01/17 09:36:01;;;;;;;0.10;0.10;;;0.40;83.10;;;;;;4990914;28;20518;-68
2024/01/17 09:38:27;;;;;;;0.10;0.10;;;0.50;83.20;;;;;;4988956;28;20046;-69
2024/01/17 09:40:53;;;;;;;0.10;0.10;;;0.50;83.50;;;;;;4990835;28;20043;-68
2024/01/17 09:43:19;;;;;;;0.13;0.13;;;0.40;83.30;;;;;;4986732;28;20045;-68
2024/01/17 09:45:46;;;;;;;0.10;0.10;;;0.40;83.70;;;;;;4997166;28;20050;-68
2024/01/17 09:48:14;;;;;;;0.10;0.10;;;0.40;83.70;;;;;;4987554;28;20585;-69
2024/01/17 09:50:40;;;;;;;0.73;0.73;;;0.40;83.90;;;;;;4987555;28;20120;-69
2024/01/17 09:53:19;;;;;;;0.10;0.10;;;0.50;83.70;;;;;;4988250;28;20054;-69
2024/01/17 09:55:47;;;;;;;0.00;0.00;;;0.50;83.90;;;;;;4991551;28;20169;-69
2024/01/17 09:58:14;;;;;;;0.00;0.00;;;0.40;83.90;;;;;;4987997;28;20476;-69
2024/01/17 10:00:43;;;;;;;0.05;0.05;;;0.50;83.90;;;;;;4989705;28;20046;-69
2024/01/17 10:03:14;;;;;;;0.10;0.10;;;0.60;84.10;;;;;;4989238;28;20038;-68
2024/01/17 10:05:40;;;;;;;0.28;0.28;;;0.70;84.70;;;;;;4987413;28;20551;-68
2024/01/17 10:08:07;;;;;;;0.13;0.13;;;0.70;84.00;;;;;;4989924;28;20057;-69
2024/01/17 10:10:33;;;;;;;0.10;0.10;;;0.70;83.80;;;;;;4988467;28;20129;-69
2024/01/17 10:12:59;;;;;;;0.10;0.10;;;0.60;83.20;;;;;;4986900;28;20096;-68
2024/01/17 10:15:24;;;;;;;1.48;1.38;;;0.70;83.60;;;;;;4987533;28;20140;-69
2024/01/17 10:17:50;;;;;;;0.10;0.10;;;0.60;83.40;;;;;;4992096;28;20545;-68
2024/01/17 10:20:16;;;;;;;0.10;0.10;;;0.70;83.60;;;;;;5002030;28;20065;-68
2024/01/17 10:22:45;;;;;;;0.03;0.03;;;0.60;83.40;;;;;;5007799;28;20077;-68
2024/01/17 10:25:12;;;;;;;0.10;0.10;;;0.60;83.40;;;;;;5000852;28;20054;-69
2024/01/17 10:27:37;;;;;;;0.10;0.10;;;0.70;83.40;;;;;;4989179;28;20043;-69
2024/01/17 10:30:04;;;;;;;0.63;0.55;;;0.80;83.50;;;;;;4988632;28;20060;-69
2024/01/17 10:32:31;;;;;;;0.00;0.00;;;0.80;83.40;;;;;;4989568;28;20054;-68
2024/01/17 10:34:58;;;;;;;0.47;0.47;;;0.80;83.00;;;;;;4985673;28;20454;-70
2024/01/17 10:37:25;;;;;;;0.10;0.10;;;0.90;83.50;;;;;;4988904;28;20112;-70
2024/01/17 10:40:11;;;;;;;0.10;0.10;;;0.90;82.50;;;;;;4989382;28;20037;-69
2024/01/17 10:42:37;;;;;;;0.30;0.30;;;0.90;82.50;;;;;;4983233;28;20045;-69
2024/01/17 10:45:05;;;;;;;0.30;0.30;;;0.90;82.60;;;;;;4987931;28;20092;-69
2024/01/17 10:47:31;;;;;;;0.00;0.00;;;0.90;82.50;;;;;;4989302;28;20050;-69
2024/01/17 10:49:56;;;;;;;0.03;0.03;;;0.90;82.60;;;;;;4987796;28;20488;-69
2024/01/17 10:52:25;;;;;;;0.00;0.00;;;0.90;82.70;;;;;;5003196;28;20058;-70
2024/01/17 10:54:56;;;;;;;0.10;0.10;;;1.00;82.50;;;;;;4996692;28;20562;-70
2024/01/17 10:57:24;;;;;;;0.20;0.20;;;1.00;82.70;;;;;;4997206;28;20050;-70
2024/01/17 10:59:51;;;;;;;0.35;0.35;;;1.00;82.10;;;;;;4996801;28;20515;-69
2024/01/17 11:02:23;;;;;;;0.45;0.45;;;1.00;82.10;;;;;;4995410;28;20122;-70
2024/01/17 11:05:10;;;;;;;0.10;0.10;;;1.10;81.90;;;;;;4993878;28;21005;-69
2024/01/17 11:07:36;;;;;;;9.35;1.42;;;1.10;82.10;;;;;;4994420;28;20049;-70
2024/01/17 11:10:04;;;;;;;0.10;0.10;;;1.10;81.80;;;;;;4990398;28;20050;-69
2024/01/17 11:12:35;;;;;;;0.10;0.10;;;1.10;81.90;;;;;;4986642;28;20122;-69
2024/01/17 11:15:01;;;;;;;0.10;0.10;;;1.10;81.90;;;;;;4984921;28;20499;-70
2024/01/17 11:17:30;;;;;;;0.98;0.98;;;1.10;81.60;;;;;;4991200;28;20058;-70
2024/01/17 11:19:57;;;;;;;0.10;0.10;;;1.10;82.00;;;;;;4986489;28;20427;-70
2024/01/17 11:22:23;;;;;;;0.10;0.10;;;1.10;81.80;;;;;;4991146;28;20097;-70
2024/01/17 11:25:14;;;;;;;0.00;0.00;;;1.10;81.90;;;;;;4988422;28;20518;-70
2024/01/17 11:27:49;;;;;;;0.10;0.10;;;1.20;81.90;;;;;;4988466;28;20047;-70
2024/01/17 11:30:46;;;;;;;0.13;0.13;;;1.20;82.00;;;;;;4988427;28;20077;-69
2024/01/17 11:33:13;;;;;;;0.10;0.10;;;1.30;82.00;;;;;;4986479;28;20066;-69
2024/01/17 11:35:51;;;;;;;0.10;0.10;;;1.20;81.80;;;;;;4984784;28;20046;-69
2024/01/17 11:38:22;;;;;;;0.05;0.05;;;1.20;81.80;;;;;;5008250;28;20055;-69
2024/01/17 11:40:57;;;;;;;0.73;0.73;;;1.20;81.50;;;;;;4979412;28;20046;-70
2024/01/17 11:43:26;;;;;;;0.00;0.00;;;1.20;81.70;;;;;;4988002;28;20606;-69
2024/01/17 11:45:53;;;;;;;0.00;0.00;;;1.20;81.50;;;;;;4981008;28;20046;-69
2024/01/17 11:48:27;;;;;;;0.00;0.00;;;1.30;81.80;;;;;;4980733;28;20038;-69
2024/01/17 11:51:14;;;;;;;0.10;0.10;;;1.40;81.90;;;;;;4983820;28;20034;-70
2024/01/17 11:53:46;;;;;;;0.10;0.10;;;1.30;81.70;;;;;;5001587;28;20988;-70
2024/01/17 11:56:15;;;;;;;;;;;1.30;81.00;;;;;;4988179;28;20046;-70
2024/01/17 11:58:45;;;;;;;;;;;1.30;81.50;;;;;;4983816;28;19926;-69
2024/01/17 12:01:18;;;;;;;0.00;0.00;;;1.30;81.40;;;;;;4969133;28;20454;-69
2024/01/17 12:03:44;;;;;;;0.00;0.00;;;1.20;81.50;;;;;;4981241;28;20050;-70
2024/01/17 12:06:13;;;;;;;0.10;0.10;;;1.20;81.50;;;;;;4976273;28;20400;-70
2024/01/17 12:08:40;;;;;;;0.00;0.00;;;1.20;81.70;;;;;;4986747;28;20113;-70
2024/01/17 12:11:06;;;;;;;0.32;0.32;;;1.20;81.60;;;;;;4988125;28;20436;-70
2024/01/17 12:13:33;;;;;;;0.30;0.30;;;1.20;81.70;;;;;;4988295;28;20938;-70
2024/01/17 12:16:00;;;;;;;0.63;0.63;;;1.10;81.90;;;;;;4987800;28;20615;-70
2024/01/17 12:18:26;;;;;;;0.00;0.00;;;1.10;82.10;;;;;;4986890;28;20125;-70
2024/01/17 12:20:54;;;;;;;0.00;0.00;;;1.10;82.40;;;;;;4987011;28;20080;-70
2024/01/17 12:23:22;;;;;;;0.75;0.75;;;1.00;83.00;;;;;;4990470;28;20121;-70
2024/01/17 12:25:48;;;;;;;0.15;0.15;;;1.10;83.10;;;;;;4986403;28;20488;-70
2024/01/17 12:28:19;;;;;;;0.52;0.52;;;1.00;83.40;;;;;;4985253;28;20062;-70
2024/01/17 12:31:07;;;;;;;0.10;0.10;;;1.10;83.50;;;;;;4987005;28;20050;-70
2024/01/17 12:33:37;;;;;;;0.47;0.47;;;1.10;83.70;;;;;;5004737;28;20038;-70
2024/01/17 12:36:05;;;;;;;0.10;0.10;;;1.10;83.80;;;;;;4982194;28;20104;-70
2024/01/17 12:38:35;;;;;;;0.30;0.30;;;1.10;84.00;;;;;;4986992;28;20046;-70
2024/01/17 12:41:03;;;;;;;0.00;0.00;;;1.10;84.10;;;;;;4987959;28;20121;-70
2024/01/17 12:43:31;;;;;;;0.00;0.00;;;1.20;84.10;;;;;;4989139;28;20046;-70
2024/01/17 12:45:57;;;;;;;0.10;0.10;;;1.20;84.10;;;;;;4985348;28;20050;-70
2024/01/17 12:48:25;;;;;;;0.10;0.10;;;1.20;84.30;;;;;;4984015;28;20121;-72
2024/01/17 12:50:57;;;;;;;0.15;0.15;;;1.20;84.50;;;;;;4986098;28;20633;-71
2024/01/17 12:53:29;;;;;;;;;;;1.20;84.50;;;;;;5001532;28;20050;-71